createdAt,value
2018-09-20T00:00:10.219Z,7.10
2018-09-20T00:01:10.289Z,4.80
2018-09-20T00:02:10.338Z,4.80
2018-09-20T00:03:10.255Z,4.80
2018-09-20T00:04:10.219Z,4.80
2018-09-20T00:05:10.323Z,4.80
2018-09-20T00:06:10.297Z,4.80
2018-09-20T00:07:10.356Z,4.80
2018-09-20T00:08:10.344Z,4.80
2018-09-20T00:09:10.270Z,4.80
2018-09-20T00:10:10.296Z,4.80
2018-09-20T00:11:10.243Z,8.40
2018-09-20T00:12:10.290Z,8.40
2018-09-20T00:13:10.352Z,8.40
2018-09-20T00:14:10.245Z,8.40
2018-09-20T00:15:10.362Z,8.40
2018-09-20T00:16:10.307Z,8.40
2018-09-20T00:17:10.363Z,8.40
2018-09-20T00:18:10.357Z,8.40
2018-09-20T00:19:10.364Z,8.40
2018-09-20T00:20:10.265Z,8.40
2018-09-20T00:21:10.333Z,5.50
2018-09-20T00:22:10.333Z,5.50
2018-09-20T00:23:10.311Z,5.50
2018-09-20T00:24:10.266Z,5.50
2018-09-20T00:25:10.324Z,5.50
2018-09-20T00:26:10.263Z,5.50
2018-09-20T00:27:10.336Z,5.50
2018-09-20T00:28:10.270Z,5.50
2018-09-20T00:29:10.267Z,5.50
2018-09-20T00:30:10.339Z,5.50
2018-09-20T00:31:10.271Z,5.60
2018-09-20T00:32:10.271Z,5.60
2018-09-20T00:33:10.274Z,5.60
2018-09-20T00:34:10.273Z,5.60
2018-09-20T00:35:10.271Z,5.60
2018-09-20T00:36:10.360Z,5.60
2018-09-20T00:37:10.345Z,5.60
2018-09-20T00:38:10.278Z,5.60
2018-09-20T00:39:10.345Z,5.60
2018-09-20T00:40:10.345Z,5.60
2018-09-20T00:41:10.347Z,8.30
2018-09-20T00:42:10.280Z,8.30
2018-09-20T00:43:10.340Z,8.30
2018-09-20T00:44:10.285Z,8.30
2018-09-20T00:45:10.342Z,8.30
2018-09-20T00:46:10.384Z,8.30
2018-09-20T00:47:10.301Z,8.30
2018-09-20T00:48:10.372Z,8.30
2018-09-20T00:49:10.348Z,8.30
2018-09-20T00:50:10.324Z,8.30
2018-09-20T00:51:10.307Z,7.10
2018-09-20T00:52:10.407Z,7.10
2018-09-20T00:53:10.373Z,7.10
2018-09-20T00:54:10.389Z,7.10
2018-09-20T00:55:10.291Z,7.10
2018-09-20T00:56:10.277Z,7.10
2018-09-20T00:57:10.310Z,7.10
2018-09-20T00:58:10.407Z,7.10
2018-09-20T00:59:10.294Z,7.10
2018-09-20T01:00:10.353Z,7.10
2018-09-20T01:01:10.277Z,8.30
2018-09-20T01:02:10.313Z,8.30
2018-09-20T01:03:10.278Z,8.30
2018-09-20T01:04:10.276Z,8.30
2018-09-20T01:05:10.323Z,8.30
2018-09-20T01:06:10.264Z,8.30
2018-09-20T01:07:10.282Z,8.30
2018-09-20T01:08:10.359Z,8.30
2018-09-20T01:09:10.394Z,8.30
2018-09-20T01:10:10.384Z,8.30
2018-09-20T01:11:10.327Z,7.50
2018-09-20T01:12:10.368Z,7.50
2018-09-20T01:13:10.373Z,7.50
2018-09-20T01:14:10.363Z,7.50
2018-09-20T01:15:10.389Z,7.50
2018-09-20T01:16:10.324Z,7.50
2018-09-20T01:17:10.346Z,7.50
2018-09-20T01:18:10.394Z,7.50
2018-09-20T01:19:10.387Z,7.50
2018-09-20T01:20:10.395Z,7.50
2018-09-20T01:21:10.360Z,5.20
2018-09-20T01:22:10.364Z,5.20
2018-09-20T01:23:10.364Z,5.20
2018-09-20T01:24:10.290Z,5.20
2018-09-20T01:25:10.368Z,5.20
2018-09-20T01:26:10.367Z,5.20
2018-09-20T01:27:10.368Z,5.20
2018-09-20T01:28:10.293Z,5.20
2018-09-20T01:29:10.318Z,5.20
2018-09-20T01:30:10.293Z,5.20
2018-09-20T01:31:10.380Z,5.80
2018-09-20T01:32:10.318Z,5.80
2018-09-20T01:33:10.315Z,5.80
2018-09-20T01:34:10.341Z,5.80
2018-09-20T01:35:10.317Z,5.80
2018-09-20T01:36:10.319Z,5.80
2018-09-20T01:37:10.388Z,5.80
2018-09-20T01:38:10.387Z,5.80
2018-09-20T01:39:10.385Z,5.80
2018-09-20T01:40:10.388Z,5.80
2018-09-20T01:41:10.412Z,5.20
2018-09-20T01:42:10.391Z,5.20
2018-09-20T01:43:10.361Z,5.20
2018-09-20T01:44:10.351Z,5.20
2018-09-20T01:45:10.326Z,5.20
2018-09-20T01:46:10.316Z,5.20
2018-09-20T01:47:10.330Z,5.20
2018-09-20T01:48:10.330Z,5.20
2018-09-20T01:49:10.352Z,5.20
2018-09-20T01:50:10.351Z,5.20
2018-09-20T01:51:10.333Z,7.50
2018-09-20T01:52:10.389Z,7.50
2018-09-20T01:53:10.391Z,7.50
2018-09-20T01:54:10.423Z,7.50
2018-09-20T01:55:10.373Z,7.50
2018-09-20T01:56:10.413Z,7.50
2018-09-20T01:57:10.365Z,7.50
2018-09-20T01:58:10.338Z,7.50
2018-09-20T01:59:10.317Z,7.50
2018-09-20T02:00:10.314Z,7.50
2018-09-20T02:01:10.314Z,7.00
2018-09-20T02:02:10.400Z,7.00
2018-09-20T02:03:10.393Z,7.00
2018-09-20T02:04:10.392Z,7.00
2018-09-20T02:05:10.393Z,7.00
2018-09-20T02:06:10.393Z,7.00
2018-09-20T02:07:10.393Z,7.00
2018-09-20T02:08:10.325Z,7.00
2018-09-20T02:09:10.320Z,7.00
2018-09-20T02:10:10.401Z,7.00
2018-09-20T02:11:10.378Z,5.90
2018-09-20T02:12:10.385Z,5.90
2018-09-20T02:13:10.332Z,5.90
2018-09-20T02:14:10.372Z,5.90
2018-09-20T02:15:10.412Z,5.90
2018-09-20T02:16:10.351Z,5.90
2018-09-20T02:17:10.406Z,5.90
2018-09-20T02:18:10.394Z,5.90
2018-09-20T02:19:10.368Z,5.90
2018-09-20T02:20:10.353Z,5.90
2018-09-20T02:21:10.409Z,7.10
2018-09-20T02:22:10.439Z,7.10
2018-09-20T02:23:10.421Z,7.10
2018-09-20T02:24:10.321Z,7.10
2018-09-20T02:25:10.419Z,7.10
2018-09-20T02:26:10.334Z,7.10
2018-09-20T02:27:10.421Z,7.10
2018-09-20T02:28:10.398Z,7.10
2018-09-20T02:29:10.450Z,7.10
2018-09-20T02:30:10.400Z,7.10
2018-09-20T02:31:10.426Z,13.40
2018-09-20T02:32:10.426Z,13.40
2018-09-20T02:33:10.356Z,13.40
2018-09-20T02:34:10.416Z,13.40
2018-09-20T02:35:10.359Z,13.40
2018-09-20T02:36:10.357Z,13.40
2018-09-20T02:37:10.358Z,13.40
2018-09-20T02:38:10.406Z,13.40
2018-09-20T02:39:10.361Z,13.40
2018-09-20T02:40:10.362Z,13.40
2018-09-20T02:41:10.360Z,5.40
2018-09-20T02:42:10.431Z,5.40
2018-09-20T02:43:10.362Z,5.40
2018-09-20T02:44:10.429Z,5.40
2018-09-20T02:45:10.375Z,5.40
2018-09-20T02:46:10.366Z,5.40
2018-09-20T02:47:10.364Z,5.40
2018-09-20T02:48:10.373Z,5.40
2018-09-20T02:49:10.436Z,5.40
2018-09-20T02:50:10.439Z,5.40
2018-09-20T02:51:10.360Z,4.90
2018-09-20T02:52:10.513Z,4.90
2018-09-20T02:53:10.475Z,4.90
2018-09-20T02:54:10.475Z,4.90
2018-09-20T02:55:10.395Z,4.90
2018-09-20T02:56:10.356Z,4.90
2018-09-20T02:57:10.472Z,4.90
2018-09-20T02:58:10.410Z,4.90
2018-09-20T02:59:10.359Z,4.90
2018-09-20T03:00:10.471Z,4.90
2018-09-20T03:01:10.344Z,5.50
2018-09-20T03:02:10.434Z,5.50
2018-09-20T03:03:10.361Z,5.50
2018-09-20T03:04:10.316Z,5.50
2018-09-20T03:05:10.434Z,5.50
2018-09-20T03:06:10.367Z,5.50
2018-09-20T03:07:10.441Z,5.50
2018-09-20T03:08:10.352Z,5.50
2018-09-20T03:09:10.435Z,5.50
2018-09-20T03:10:10.364Z,5.50
2018-09-20T03:11:10.368Z,9.80
2018-09-20T03:12:10.354Z,9.80
2018-09-20T03:13:10.444Z,9.80
2018-09-20T03:14:10.439Z,9.80
2018-09-20T03:15:10.444Z,9.80
2018-09-20T03:16:10.405Z,9.80
2018-09-20T03:17:10.443Z,9.80
2018-09-20T03:18:10.370Z,9.80
2018-09-20T03:19:10.380Z,9.80
2018-09-20T03:20:10.383Z,9.80
2018-09-20T03:21:10.511Z,8.80
2018-09-20T03:22:10.416Z,8.80
2018-09-20T03:23:10.481Z,8.80
2018-09-20T03:24:10.429Z,8.80
2018-09-20T03:25:10.459Z,8.80
2018-09-20T03:26:10.480Z,8.80
2018-09-20T03:27:10.456Z,8.80
2018-09-20T03:28:10.377Z,8.80
2018-09-20T03:29:10.495Z,8.80
2018-09-20T03:30:10.446Z,8.80
2018-09-20T03:31:10.466Z,6.60
2018-09-20T03:32:10.410Z,6.60
2018-09-20T03:33:10.477Z,6.60
2018-09-20T03:34:10.413Z,6.60
2018-09-20T03:35:10.469Z,6.60
2018-09-20T03:36:10.475Z,6.60
2018-09-20T03:37:10.472Z,6.60
2018-09-20T03:38:10.409Z,6.60
2018-09-20T03:39:10.402Z,6.60
2018-09-20T03:40:10.402Z,6.60
2018-09-20T03:41:10.415Z,7.30
2018-09-20T03:42:10.475Z,7.30
2018-09-20T03:43:10.480Z,7.30
2018-09-20T03:44:10.405Z,7.30
2018-09-20T03:45:10.473Z,7.30
2018-09-20T03:46:10.371Z,7.30
2018-09-20T03:47:10.410Z,7.30
2018-09-20T03:48:10.417Z,7.30
2018-09-20T03:49:10.478Z,7.30
2018-09-20T03:50:10.414Z,7.30
2018-09-20T03:51:10.409Z,7.40
2018-09-20T03:52:10.481Z,7.40
2018-09-20T03:53:10.412Z,7.40
2018-09-20T03:54:10.412Z,7.40
2018-09-20T03:55:10.482Z,7.40
2018-09-20T03:56:10.418Z,7.40
2018-09-20T03:57:10.412Z,7.40
2018-09-20T03:58:10.415Z,7.40
2018-09-20T03:59:10.484Z,7.40
2018-09-20T04:00:10.489Z,7.40
2018-09-20T04:01:10.487Z,8.80
2018-09-20T04:02:10.487Z,8.80
2018-09-20T04:03:10.481Z,8.80
2018-09-20T04:04:10.421Z,8.80
2018-09-20T04:05:10.491Z,8.80
2018-09-20T04:06:10.422Z,8.80
2018-09-20T04:07:10.492Z,8.80
2018-09-20T04:08:10.423Z,8.80
2018-09-20T04:09:10.427Z,8.80
2018-09-20T04:10:10.423Z,8.80
2018-09-20T04:11:10.444Z,7.50
2018-09-20T04:12:10.443Z,7.50
2018-09-20T04:13:10.352Z,7.50
2018-09-20T04:14:10.411Z,7.50
2018-09-20T04:15:10.441Z,7.50
2018-09-20T04:16:10.350Z,7.50
2018-09-20T04:17:10.411Z,7.50
2018-09-20T04:18:10.412Z,7.50
2018-09-20T04:19:10.455Z,7.50
2018-09-20T04:20:10.400Z,7.50
2018-09-20T04:21:10.431Z,8.30
2018-09-20T04:22:10.500Z,8.30
2018-09-20T04:23:10.502Z,8.30
2018-09-20T04:24:10.441Z,8.30
2018-09-20T04:25:10.508Z,8.30
2018-09-20T04:26:10.507Z,8.30
2018-09-20T04:27:10.510Z,8.30
2018-09-20T04:28:10.502Z,8.30
2018-09-20T04:29:10.508Z,8.30
2018-09-20T04:30:10.445Z,8.30
2018-09-20T04:31:10.548Z,6.20
2018-09-20T04:32:10.470Z,6.20
2018-09-20T04:33:10.426Z,6.20
2018-09-20T04:34:10.428Z,6.20
2018-09-20T04:35:10.567Z,6.20
2018-09-20T04:36:10.433Z,6.20
2018-09-20T04:37:10.638Z,6.20
2018-09-20T04:38:10.428Z,6.20
2018-09-20T04:39:10.415Z,6.20
2018-09-20T04:40:10.517Z,6.20
2018-09-20T04:41:10.485Z,9.20
2018-09-20T04:42:10.532Z,9.20
2018-09-20T04:43:10.447Z,9.20
2018-09-20T04:44:10.518Z,9.20
2018-09-20T04:45:10.515Z,9.20
2018-09-20T04:46:10.521Z,9.20
2018-09-20T04:47:10.450Z,9.20
2018-09-20T04:48:10.447Z,9.20
2018-09-20T04:49:10.454Z,9.20
2018-09-20T04:50:10.451Z,9.20
2018-09-20T04:51:10.532Z,9.20
2018-09-20T04:52:10.493Z,6.50
2018-09-20T04:53:10.538Z,6.50
2018-09-20T04:54:10.431Z,6.50
2018-09-20T04:55:10.496Z,6.50
2018-09-20T04:56:10.488Z,6.50
2018-09-20T04:57:10.438Z,6.50
2018-09-20T04:58:10.430Z,6.50
2018-09-20T04:59:10.491Z,6.50
2018-09-20T05:00:10.535Z,6.50
2018-09-20T05:01:10.522Z,6.50
2018-09-20T05:02:10.497Z,7.50
2018-09-20T05:03:10.461Z,7.50
2018-09-20T05:04:10.528Z,7.50
2018-09-20T05:05:10.531Z,7.50
2018-09-20T05:06:10.529Z,7.50
2018-09-20T05:07:10.470Z,7.50
2018-09-20T05:08:10.592Z,7.50
2018-09-20T05:09:10.537Z,7.50
2018-09-20T05:10:10.544Z,7.50
2018-09-20T05:11:10.536Z,7.50
2018-09-20T05:12:10.559Z,8.40
2018-09-20T05:13:10.504Z,8.40
2018-09-20T05:14:10.558Z,8.40
2018-09-20T05:15:10.479Z,8.40
2018-09-20T05:16:10.500Z,8.40
2018-09-20T05:17:10.560Z,8.40
2018-09-20T05:18:10.571Z,8.40
2018-09-20T05:19:10.564Z,8.40
2018-09-20T05:20:10.593Z,8.40
2018-09-20T05:21:10.545Z,8.40
2018-09-20T05:22:10.431Z,11.99
2018-09-20T05:23:10.445Z,11.99
2018-09-20T05:24:10.530Z,11.99
2018-09-20T05:25:10.459Z,11.99
2018-09-20T05:26:10.535Z,11.99
2018-09-20T05:27:10.435Z,11.99
2018-09-20T05:28:10.475Z,11.99
2018-09-20T05:29:10.451Z,11.99
2018-09-20T05:30:10.471Z,11.99
2018-09-20T05:31:10.537Z,11.99
2018-09-20T05:32:10.524Z,9.99
2018-09-20T05:33:10.652Z,9.99
2018-09-20T05:34:10.468Z,9.99
2018-09-20T05:35:10.530Z,9.99
2018-09-20T05:36:10.550Z,9.99
2018-09-20T05:37:10.581Z,9.99
2018-09-20T05:38:10.469Z,9.99
2018-09-20T05:39:10.568Z,9.99
2018-09-20T05:40:10.505Z,9.99
2018-09-20T05:41:10.454Z,9.99
2018-09-20T05:42:10.613Z,9.30
2018-09-20T05:43:10.479Z,9.30
2018-09-20T05:44:10.556Z,9.30
2018-09-20T05:45:10.527Z,9.30
2018-09-20T05:46:10.599Z,9.30
2018-09-20T05:47:10.595Z,9.30
2018-09-20T05:48:10.532Z,9.30
2018-09-20T05:49:10.589Z,9.30
2018-09-20T05:50:10.533Z,9.30
2018-09-20T05:51:10.562Z,9.30
2018-09-20T05:52:10.496Z,7.60
2018-09-20T05:53:10.492Z,7.60
2018-09-20T05:54:10.588Z,7.60
2018-09-20T05:55:10.500Z,7.60
2018-09-20T05:56:10.570Z,7.60
2018-09-20T05:57:10.449Z,7.60
2018-09-20T05:58:10.500Z,7.60
2018-09-20T05:59:10.547Z,7.60
2018-09-20T06:00:10.501Z,7.60
2018-09-20T06:01:10.573Z,7.60
2018-09-20T06:02:10.475Z,11.10
2018-09-20T06:03:10.563Z,11.10
2018-09-20T06:04:10.491Z,11.10
2018-09-20T06:05:10.557Z,11.10
2018-09-20T06:06:10.563Z,11.10
2018-09-20T06:07:10.491Z,11.10
2018-09-20T06:08:10.566Z,11.10
2018-09-20T06:09:10.490Z,11.10
2018-09-20T06:11:10.517Z,11.10
2018-09-20T06:12:10.503Z,8.10
2018-09-20T06:13:10.526Z,8.10
2018-09-20T06:14:10.633Z,8.10
2018-09-20T06:15:10.500Z,8.10
2018-09-20T06:16:10.480Z,8.10
2018-09-20T06:17:10.610Z,8.10
2018-09-20T06:18:10.584Z,8.10
2018-09-20T06:19:10.539Z,8.10
2018-09-20T06:20:10.483Z,8.10
2018-09-20T06:21:10.542Z,8.10
2018-09-20T06:22:10.586Z,15.80
2018-09-20T06:23:10.515Z,15.80
2018-09-20T06:24:10.531Z,15.80
2018-09-20T06:25:10.556Z,15.80
2018-09-20T06:26:10.588Z,15.80
2018-09-20T06:27:10.527Z,15.80
2018-09-20T06:28:10.588Z,15.80
2018-09-20T06:29:10.596Z,15.80
2018-09-20T06:30:10.599Z,15.80
2018-09-20T06:31:10.487Z,15.80
2018-09-20T06:32:10.597Z,7.80
2018-09-20T06:33:10.521Z,7.80
2018-09-20T06:34:10.598Z,7.80
2018-09-20T06:35:10.595Z,7.80
2018-09-20T06:36:10.526Z,7.80
2018-09-20T06:37:10.527Z,7.80
2018-09-20T06:38:10.600Z,7.80
2018-09-20T06:39:10.600Z,7.80
2018-09-20T06:40:10.530Z,7.80
2018-09-20T06:41:10.614Z,7.80
2018-09-20T06:42:10.646Z,11.60
2018-09-20T06:43:10.564Z,11.60
2018-09-20T06:44:10.569Z,11.60
2018-09-20T06:45:10.611Z,11.60
2018-09-20T06:46:10.575Z,11.60
2018-09-20T06:47:10.524Z,11.60
2018-09-20T06:48:10.565Z,11.60
2018-09-20T06:49:10.583Z,11.60
2018-09-20T06:50:10.577Z,11.60
2018-09-20T06:51:10.581Z,11.60
2018-09-20T06:52:10.633Z,8.40
2018-09-20T06:53:10.624Z,8.40
2018-09-20T06:54:10.641Z,8.40
2018-09-20T06:55:10.605Z,8.40
2018-09-20T06:56:10.637Z,8.40
2018-09-20T06:57:10.637Z,8.40
2018-09-20T06:58:10.530Z,8.40
2018-09-20T06:59:10.552Z,8.40
2018-09-20T07:00:10.545Z,8.40
2018-09-20T07:01:10.745Z,8.40
2018-09-20T07:02:10.545Z,9.70
2018-09-20T07:03:10.621Z,9.70
2018-09-20T07:04:10.619Z,9.70
2018-09-20T07:05:10.627Z,9.70
2018-09-20T07:06:10.551Z,9.70
2018-09-20T07:07:10.620Z,9.70
2018-09-20T07:08:10.630Z,9.70
2018-09-20T07:09:10.621Z,9.70
2018-09-20T07:10:10.622Z,9.70
2018-09-20T07:11:10.639Z,9.70
2018-09-20T07:12:10.521Z,14.00
2018-09-20T07:13:10.494Z,14.00
2018-09-20T07:14:10.550Z,14.00
2018-09-20T07:15:10.556Z,14.00
2018-09-20T07:16:10.493Z,14.00
2018-09-20T07:17:10.608Z,14.00
2018-09-20T07:18:10.607Z,14.00
2018-09-20T07:19:10.556Z,14.00
2018-09-20T07:20:10.529Z,14.00
2018-09-20T07:21:10.543Z,14.00
2018-09-20T07:22:10.617Z,13.40
2018-09-20T07:23:10.559Z,13.40
2018-09-20T07:24:10.570Z,13.40
2018-09-20T07:25:10.570Z,13.40
2018-09-20T07:26:10.582Z,13.40
2018-09-20T07:27:10.526Z,13.40
2018-09-20T07:28:10.482Z,13.40
2018-09-20T07:29:10.568Z,13.40
2018-09-20T07:30:10.497Z,13.40
2018-09-20T07:31:10.536Z,13.40
2018-09-20T07:32:10.537Z,12.90
2018-09-20T07:33:10.523Z,12.90
2018-09-20T07:34:10.563Z,12.90
2018-09-20T07:35:10.625Z,12.90
2018-09-20T07:36:10.571Z,12.90
2018-09-20T07:37:10.630Z,12.90
2018-09-20T07:38:10.628Z,12.90
2018-09-20T07:39:10.630Z,12.90
2018-09-20T07:40:10.553Z,12.90
2018-09-20T07:41:10.523Z,12.90
2018-09-20T07:42:10.619Z,12.60
2018-09-20T07:43:10.599Z,12.60
2018-09-20T07:44:10.563Z,12.60
2018-09-20T07:45:10.622Z,12.60
2018-09-20T07:46:10.651Z,12.60
2018-09-20T07:47:10.653Z,12.60
2018-09-20T07:48:10.584Z,12.60
2018-09-20T07:49:10.615Z,12.60
2018-09-20T07:50:10.674Z,12.60
2018-09-20T07:51:10.653Z,12.60
2018-09-20T07:52:10.582Z,7.80
2018-09-20T07:53:10.582Z,7.80
2018-09-20T07:54:10.659Z,7.80
2018-09-20T07:55:10.659Z,7.80
2018-09-20T07:56:10.656Z,7.80
2018-09-20T07:57:10.582Z,7.80
2018-09-20T07:58:10.655Z,7.80
2018-09-20T07:59:10.586Z,7.80
2018-09-20T08:00:10.711Z,7.80
2018-09-20T08:01:10.590Z,7.80
2018-09-20T08:02:10.590Z,10.50
2018-09-20T08:03:10.592Z,10.50
2018-09-20T08:04:10.595Z,10.50
2018-09-20T08:05:10.660Z,10.50
2018-09-20T08:06:10.661Z,10.50
2018-09-20T08:07:10.680Z,10.50
2018-09-20T08:08:10.609Z,10.50
2018-09-20T08:09:10.590Z,10.50
2018-09-20T08:10:10.665Z,10.50
2018-09-20T08:11:10.592Z,10.50
2018-09-20T08:12:10.560Z,9.40
2018-09-20T08:13:10.686Z,9.40
2018-09-20T08:14:10.694Z,9.40
2018-09-20T08:15:10.664Z,9.40
2018-09-20T08:16:10.643Z,9.40
2018-09-20T08:17:10.693Z,9.40
2018-09-20T08:18:10.663Z,9.40
2018-09-20T08:19:10.619Z,9.40
2018-09-20T08:20:10.610Z,9.40
2018-09-20T08:21:10.670Z,9.40
2018-09-20T08:22:10.658Z,10.10
2018-09-20T08:23:10.662Z,10.10
2018-09-20T08:24:10.662Z,10.10
2018-09-20T08:25:10.655Z,10.10
2018-09-20T08:26:10.664Z,10.10
2018-09-20T08:27:10.665Z,10.10
2018-09-20T08:28:10.561Z,10.10
2018-09-20T08:29:10.591Z,10.10
2018-09-20T08:30:10.597Z,10.10
2018-09-20T08:31:10.673Z,10.10
2018-09-20T08:32:10.630Z,6.70
2018-09-20T08:33:10.646Z,6.70
2018-09-20T08:34:10.656Z,6.70
2018-09-20T08:35:10.652Z,6.70
2018-09-20T08:36:10.628Z,6.70
2018-09-20T08:37:10.767Z,6.70
2018-09-20T08:38:10.660Z,6.70
2018-09-20T08:39:10.621Z,6.70
2018-09-20T08:40:10.694Z,6.70
2018-09-20T08:41:10.715Z,6.70
2018-09-20T08:42:10.645Z,8.80
2018-09-20T08:43:10.603Z,8.80
2018-09-20T08:44:10.589Z,8.80
2018-09-20T08:45:10.678Z,8.80
2018-09-20T08:46:10.617Z,8.80
2018-09-20T08:47:10.674Z,8.80
2018-09-20T08:48:10.685Z,8.80
2018-09-20T08:49:10.603Z,8.80
2018-09-20T08:50:10.595Z,8.80
2018-09-20T08:51:10.628Z,8.80
2018-09-20T08:52:10.643Z,6.80
2018-09-20T08:53:10.665Z,6.80
2018-09-20T08:54:10.610Z,6.80
2018-09-20T08:55:10.653Z,6.80
2018-09-20T08:56:10.729Z,6.80
2018-09-20T08:57:10.714Z,6.80
2018-09-20T08:58:10.652Z,6.80
2018-09-20T08:59:10.710Z,6.80
2018-09-20T09:00:10.716Z,6.80
2018-09-20T09:01:10.730Z,6.80
2018-09-20T09:02:10.680Z,10.10
2018-09-20T09:03:10.614Z,10.10
2018-09-20T09:04:10.684Z,10.10
2018-09-20T09:05:10.620Z,10.10
2018-09-20T09:06:10.634Z,10.10
2018-09-20T09:07:10.662Z,10.10
2018-09-20T09:08:10.653Z,10.10
2018-09-20T09:09:10.638Z,10.10
2018-09-20T09:10:10.687Z,10.10
2018-09-20T09:11:10.621Z,10.10
2018-09-20T09:12:10.713Z,5.90
2018-09-20T09:13:10.637Z,5.90
2018-09-20T09:14:10.635Z,5.90
2018-09-20T09:15:10.714Z,5.90
2018-09-20T09:16:10.639Z,5.90
2018-09-20T09:17:10.711Z,5.90
2018-09-20T09:18:10.639Z,5.90
2018-09-20T09:19:10.718Z,5.90
2018-09-20T09:20:10.729Z,5.90
2018-09-20T09:21:10.648Z,5.90
2018-09-20T09:22:10.639Z,7.80
2018-09-20T09:23:10.648Z,7.80
2018-09-20T09:24:10.754Z,7.80
2018-09-20T09:25:10.751Z,7.80
2018-09-20T09:26:10.617Z,7.80
2018-09-20T09:27:10.750Z,7.80
2018-09-20T09:28:10.632Z,7.80
2018-09-20T09:29:10.681Z,7.80
2018-09-20T09:30:10.754Z,7.80
2018-09-20T09:31:10.743Z,7.80
2018-09-20T09:32:10.757Z,8.30
2018-09-20T09:33:10.692Z,8.30
2018-09-20T09:34:10.764Z,8.30
2018-09-20T09:35:10.687Z,8.30
2018-09-20T09:36:10.687Z,8.30
2018-09-20T09:37:10.687Z,8.30
2018-09-20T09:38:10.758Z,8.30
2018-09-20T09:39:10.749Z,8.30
2018-09-20T09:40:10.743Z,8.30
2018-09-20T09:41:10.698Z,8.30
2018-09-20T09:42:10.784Z,10.20
2018-09-20T09:43:10.801Z,10.20
2018-09-20T09:44:10.723Z,10.20
2018-09-20T09:45:10.654Z,10.20
2018-09-20T09:46:10.721Z,10.20
2018-09-20T09:47:10.633Z,10.20
2018-09-20T09:48:10.702Z,10.20
2018-09-20T09:49:10.621Z,10.20
2018-09-20T09:50:10.649Z,10.20
2018-09-20T09:51:10.722Z,10.20
2018-09-20T09:52:10.773Z,5.80
2018-09-20T09:53:10.738Z,5.80
2018-09-20T09:54:10.634Z,5.80
2018-09-20T09:55:10.658Z,5.80
2018-09-20T09:56:10.658Z,5.80
2018-09-20T09:57:10.761Z,5.80
2018-09-20T09:58:10.771Z,5.80
2018-09-20T09:59:10.755Z,5.80
2018-09-20T10:00:10.773Z,5.80
2018-09-20T10:01:10.737Z,5.80
2018-09-20T10:02:10.659Z,6.40
2018-09-20T10:03:10.745Z,6.40
2018-09-20T10:04:10.816Z,6.40
2018-09-20T10:05:10.713Z,6.40
2018-09-20T10:06:10.697Z,6.40
2018-09-20T10:07:10.753Z,6.40
2018-09-20T10:08:10.701Z,6.40
2018-09-20T10:09:10.704Z,6.40
2018-09-20T10:10:10.754Z,6.40
2018-09-20T10:11:10.753Z,6.40
2018-09-20T10:12:10.744Z,6.40
2018-09-20T10:13:10.708Z,6.40
2018-09-20T10:14:10.686Z,6.40
2018-09-20T10:15:10.711Z,6.40
2018-09-20T10:16:10.753Z,6.40
2018-09-20T10:17:10.665Z,6.40
2018-09-20T10:18:10.723Z,6.40
2018-09-20T10:19:10.669Z,6.40
2018-09-20T10:20:10.672Z,6.40
2018-09-20T10:21:10.652Z,6.40
2018-09-20T10:22:10.670Z,5.30
2018-09-20T10:23:10.651Z,5.30
2018-09-20T10:24:10.750Z,5.30
2018-09-20T10:25:10.747Z,5.30
2018-09-20T10:26:10.679Z,5.30
2018-09-20T10:27:10.686Z,5.30
2018-09-20T10:28:10.712Z,5.30
2018-09-20T10:29:10.752Z,5.30
2018-09-20T10:30:10.752Z,5.30
2018-09-20T10:31:10.758Z,5.30
2018-09-20T10:32:10.682Z,5.30
2018-09-20T10:33:10.647Z,10.80
2018-09-20T10:34:10.685Z,10.80
2018-09-20T10:35:10.761Z,10.80
2018-09-20T10:36:10.726Z,10.80
2018-09-20T10:37:10.693Z,10.80
2018-09-20T10:38:10.758Z,10.80
2018-09-20T10:39:10.733Z,10.80
2018-09-20T10:40:10.690Z,10.80
2018-09-20T10:41:10.762Z,10.80
2018-09-20T10:42:10.691Z,10.80
2018-09-20T10:43:10.712Z,8.60
2018-09-20T10:44:10.729Z,8.60
2018-09-20T10:45:10.769Z,8.60
2018-09-20T10:46:10.736Z,8.60
2018-09-20T10:47:10.750Z,8.60
2018-09-20T10:48:10.689Z,8.60
2018-09-20T10:49:10.803Z,8.60
2018-09-20T10:50:10.816Z,8.60
2018-09-20T10:51:10.701Z,8.60
2018-09-20T10:52:10.733Z,8.60
2018-09-20T10:53:10.709Z,8.80
2018-09-20T10:54:10.736Z,8.80
2018-09-20T10:55:10.731Z,8.80
2018-09-20T10:56:10.780Z,8.80
2018-09-20T10:57:10.722Z,8.80
2018-09-20T10:58:10.716Z,8.80
2018-09-20T10:59:10.787Z,8.80
2018-09-20T11:00:10.785Z,8.80
2018-09-20T11:01:10.782Z,8.80
2018-09-20T11:02:10.786Z,8.80
2018-09-20T11:03:10.831Z,7.70
2018-09-20T11:04:10.653Z,7.70
2018-09-20T11:05:10.716Z,7.70
2018-09-20T11:06:10.709Z,7.70
2018-09-20T11:07:10.661Z,7.70
2018-09-20T11:08:10.718Z,7.70
2018-09-20T11:09:10.718Z,7.70
2018-09-20T11:10:10.678Z,7.70
2018-09-20T11:11:10.658Z,7.70
2018-09-20T11:12:10.792Z,7.70
2018-09-20T11:13:10.783Z,8.10
2018-09-20T11:14:10.723Z,8.10
2018-09-20T11:15:10.807Z,8.10
2018-09-20T11:16:10.794Z,8.10
2018-09-20T11:17:10.807Z,8.10
2018-09-20T11:18:10.730Z,8.10
2018-09-20T11:19:10.678Z,8.10
2018-09-20T11:20:10.805Z,8.10
2018-09-20T11:21:10.732Z,8.10
2018-09-20T11:22:10.800Z,8.10
2018-09-20T11:23:10.729Z,10.70
2018-09-20T11:24:10.804Z,10.70
2018-09-20T11:25:10.802Z,10.70
2018-09-20T11:26:10.803Z,10.70
2018-09-20T11:27:10.809Z,10.70
2018-09-20T11:28:10.737Z,10.70
2018-09-20T11:29:10.804Z,10.70
2018-09-20T11:30:10.761Z,10.70
2018-09-20T11:31:10.804Z,10.70
2018-09-20T11:32:10.818Z,10.70
2018-09-20T11:33:10.743Z,5.80
2018-09-20T11:34:10.816Z,5.80
2018-09-20T11:35:10.807Z,5.80
2018-09-20T11:36:10.753Z,5.80
2018-09-20T11:37:10.749Z,5.80
2018-09-20T11:38:10.751Z,5.80
2018-09-20T11:39:10.703Z,5.80
2018-09-20T11:40:10.749Z,5.80
2018-09-20T11:41:10.743Z,5.80
2018-09-20T11:42:10.744Z,5.80
2018-09-20T11:43:10.730Z,5.90
2018-09-20T11:44:10.789Z,5.90
2018-09-20T11:45:10.808Z,5.90
2018-09-20T11:46:10.732Z,5.90
2018-09-20T11:47:10.804Z,5.90
2018-09-20T11:48:10.720Z,5.90
2018-09-20T11:49:10.732Z,5.90
2018-09-20T11:50:10.734Z,5.90
2018-09-20T11:51:10.752Z,5.90
2018-09-20T11:52:10.739Z,5.90
2018-09-20T11:53:10.787Z,5.60
2018-09-20T11:54:10.722Z,5.60
2018-09-20T11:55:10.781Z,5.60
2018-09-20T11:56:10.858Z,5.60
2018-09-20T11:57:10.820Z,5.60
2018-09-20T11:58:10.789Z,5.60
2018-09-20T11:59:10.823Z,5.60
2018-09-20T12:00:10.746Z,5.60
2018-09-20T12:01:10.843Z,5.60
2018-09-20T12:02:10.849Z,5.60
2018-09-20T12:03:10.761Z,9.00
2018-09-20T12:04:10.758Z,9.00
2018-09-20T12:05:10.857Z,9.00
2018-09-20T12:06:10.778Z,9.00
2018-09-20T12:07:10.749Z,9.00
2018-09-20T12:08:10.792Z,9.00
2018-09-20T12:09:10.756Z,9.00
2018-09-20T12:10:10.824Z,9.00
2018-09-20T12:11:10.825Z,9.00
2018-09-20T12:12:10.833Z,9.00
2018-09-20T12:13:10.736Z,6.90
2018-09-20T12:14:10.870Z,6.90
2018-09-20T12:15:10.754Z,6.90
2018-09-20T12:16:10.759Z,6.90
2018-09-20T12:17:10.797Z,6.90
2018-09-20T12:18:10.794Z,6.90
2018-09-20T12:19:10.853Z,6.90
2018-09-20T12:20:10.780Z,6.90
2018-09-20T12:21:10.794Z,6.90
2018-09-20T12:22:10.800Z,6.90
2018-09-20T12:23:10.762Z,8.10
2018-09-20T12:24:10.866Z,8.10
2018-09-20T12:25:10.864Z,8.10
2018-09-20T12:26:10.785Z,8.10
2018-09-20T12:27:10.769Z,8.10
2018-09-20T12:28:10.782Z,8.10
2018-09-20T12:29:10.768Z,8.10
2018-09-20T12:30:10.908Z,8.10
2018-09-20T12:31:10.804Z,8.10
2018-09-20T12:32:10.858Z,8.10
2018-09-20T12:33:10.839Z,7.50
2018-09-20T12:34:10.834Z,7.50
2018-09-20T12:35:10.852Z,7.50
2018-09-20T12:36:10.773Z,7.50
2018-09-20T12:37:10.726Z,7.50
2018-09-20T12:38:10.874Z,7.50
2018-09-20T12:39:10.770Z,7.50
2018-09-20T12:40:10.724Z,7.50
2018-09-20T12:41:10.775Z,7.50
2018-09-20T12:42:10.750Z,7.50
2018-09-20T12:43:10.873Z,4.90
2018-09-20T12:44:10.809Z,4.90
2018-09-20T12:45:10.848Z,4.90
2018-09-20T12:46:10.760Z,4.90
2018-09-20T12:47:10.757Z,4.90
2018-09-20T12:48:10.823Z,4.90
2018-09-20T12:49:10.849Z,4.90
2018-09-20T12:50:10.852Z,4.90
2018-09-20T12:51:10.851Z,4.90
2018-09-20T12:52:10.741Z,4.90
2018-09-20T12:53:10.868Z,10.50
2018-09-20T12:54:10.821Z,10.50
2018-09-20T12:55:10.869Z,10.50
2018-09-20T12:56:10.858Z,10.50
2018-09-20T12:57:10.805Z,10.50
2018-09-20T12:58:10.772Z,10.50
2018-09-20T12:59:10.860Z,10.50
2018-09-20T13:00:10.891Z,10.50
2018-09-20T13:01:10.820Z,10.50
2018-09-20T13:02:10.894Z,10.50
2018-09-20T13:03:10.769Z,11.10
2018-09-20T13:04:10.831Z,11.10
2018-09-20T13:05:10.899Z,11.10
2018-09-20T13:06:10.910Z,11.10
2018-09-20T13:07:10.903Z,11.10
2018-09-20T13:08:10.868Z,11.10
2018-09-20T13:09:10.870Z,11.10
2018-09-20T13:10:10.892Z,11.10
2018-09-20T13:11:10.826Z,11.10
2018-09-20T13:12:10.794Z,11.10
2018-09-20T13:13:10.875Z,9.80